sensor_id;sensor_type;location;lat;lon;timestamp;temperature;humidity
12957;DHT22;6543;48.836;10.092;2024-03-22T00:01:46;8.80;99.90
12957;DHT22;6543;48.836;10.092;2024-03-22T00:04:12;6.60;99.90
12957;DHT22;6543;48.836;10.092;2024-03-22T00:06:43;4.10;99.90
12957;DHT22;6543;48.836;10.092;2024-03-22T00:09:09;8.70;99.90
12957;DHT22;6543;48.836;10.092;2024-03-22T00:11:36;7.00;99.90
12957;DHT22;6543;48.836;10.092;2024-03-22T00:14:02;7.50;99.90
12957;DHT22;6543;48.836;10.092;2024-03-22T00:16:31;6.60;99.90
12957;DHT22;6543;48.836;10.092;2024-03-22T00:18:57;6.00;99.90
12957;DHT22;6543;48.836;10.092;2024-03-22T00:21:25;6.10;99.90
12957;DHT22;6543;48.836;10.092;2024-03-22T00:23:51;6.60;99.90
12957;DHT22;6543;48.836;10.092;2024-03-22T00:26:18;5.50;99.90
12957;DHT22;6543;48.836;10.092;2024-03-22T00:28:44;6.20;99.90
12957;DHT22;6543;48.836;10.092;2024-03-22T00:31:11;8.10;99.90
12957;DHT22;6543;48.836;10.092;2024-03-22T00:33:39;5.60;99.90
12957;DHT22;6543;48.836;10.092;2024-03-22T00:36:08;6.50;99.90
12957;DHT22;6543;48.836;10.092;2024-03-22T00:38:34;6.10;99.90
12957;DHT22;6543;48.836;10.092;2024-03-22T00:41:02;5.90;99.90
12957;DHT22;6543;48.836;10.092;2024-03-22T00:43:28;6.70;99.90
12957;DHT22;6543;48.836;10.092;2024-03-22T00:45:55;5.70;99.90
12957;DHT22;6543;48.836;10.092;2024-03-22T00:48:23;7.50;99.90
12957;DHT22;6543;48.836;10.092;2024-03-22T00:50:52;8.60;99.90
12957;DHT22;6543;48.836;10.092;2024-03-22T00:53:19;8.80;99.90
12957;DHT22;6543;48.836;10.092;2024-03-22T00:55:45;8.20;99.90
12957;DHT22;6543;48.836;10.092;2024-03-22T00:58:17;5.10;99.90
12957;DHT22;6543;48.836;10.092;2024-03-22T01:00:43;5.50;99.90
12957;DHT22;6543;48.836;10.092;2024-03-22T01:03:11;5.50;99.90
12957;DHT22;6543;48.836;10.092;2024-03-22T01:05:37;5.30;99.90
12957;DHT22;6543;48.836;10.092;2024-03-22T01:08:07;5.80;99.90
12957;DHT22;6543;48.836;10.092;2024-03-22T01:10:33;5.10;99.90
12957;DHT22;6543;48.836;10.092;2024-03-22T01:13:00;6.50;99.90
12957;DHT22;6543;48.836;10.092;2024-03-22T01:15:26;5.00;99.90
12957;DHT22;6543;48.836;10.092;2024-03-22T01:17:53;5.00;99.90
12957;DHT22;6543;48.836;10.092;2024-03-22T01:20:19;5.00;99.90
12957;DHT22;6543;48.836;10.092;2024-03-22T01:22:47;6.40;99.90
12957;DHT22;6543;48.836;10.092;2024-03-22T01:25:15;6.70;99.90
12957;DHT22;6543;48.836;10.092;2024-03-22T01:27:42;5.90;99.90
12957;DHT22;6543;48.836;10.092;2024-03-22T01:30:08;4.60;99.90
12957;DHT22;6543;48.836;10.092;2024-03-22T01:32:36;4.80;99.90
12957;DHT22;6543;48.836;10.092;2024-03-22T01:35:02;5.20;99.90
12957;DHT22;6543;48.836;10.092;2024-03-22T01:37:29;5.40;99.90
12957;DHT22;6543;48.836;10.092;2024-03-22T01:39:55;4.70;99.90
12957;DHT22;6543;48.836;10.092;2024-03-22T01:42:25;4.00;99.90
12957;DHT22;6543;48.836;10.092;2024-03-22T01:44:51;5.00;99.90
12957;DHT22;6543;48.836;10.092;2024-03-22T01:47:19;4.50;99.90
12957;DHT22;6543;48.836;10.092;2024-03-22T01:49:46;5.50;99.90
12957;DHT22;6543;48.836;10.092;2024-03-22T01:52:14;5.40;99.90
12957;DHT22;6543;48.836;10.092;2024-03-22T01:54:40;5.80;99.90
12957;DHT22;6543;48.836;10.092;2024-03-22T01:57:08;6.20;99.90
12957;DHT22;6543;48.836;10.092;2024-03-22T01:59:37;7.60;99.90
12957;DHT22;6543;48.836;10.092;2024-03-22T02:02:09;6.50;99.90
12957;DHT22;6543;48.836;10.092;2024-03-22T02:04:36;4.70;99.90
12957;DHT22;6543;48.836;10.092;2024-03-22T02:07:04;5.60;99.90
12957;DHT22;6543;48.836;10.092;2024-03-22T02:09:31;4.90;99.90
12957;DHT22;6543;48.836;10.092;2024-03-22T02:11:59;7.10;99.90
12957;DHT22;6543;48.836;10.092;2024-03-22T02:14:25;5.30;99.90
12957;DHT22;6543;48.836;10.092;2024-03-22T02:16:55;4.70;99.90
12957;DHT22;6543;48.836;10.092;2024-03-22T02:19:21;5.00;99.90
12957;DHT22;6543;48.836;10.092;2024-03-22T02:21:48;5.00;99.90
12957;DHT22;6543;48.836;10.092;2024-03-22T02:24:16;4.70;99.90
12957;DHT22;6543;48.836;10.092;2024-03-22T02:26:43;6.30;99.90
12957;DHT22;6543;48.836;10.092;2024-03-22T02:29:09;6.30;99.90
12957;DHT22;6543;48.836;10.092;2024-03-22T02:31:36;4.40;99.90
12957;DHT22;6543;48.836;10.092;2024-03-22T02:34:02;5.60;99.90
12957;DHT22;6543;48.836;10.092;2024-03-22T02:36:29;4.70;99.90
12957;DHT22;6543;48.836;10.092;2024-03-22T02:38:55;4.60;99.90
12957;DHT22;6543;48.836;10.092;2024-03-22T02:41:24;5.70;99.90
12957;DHT22;6543;48.836;10.092;2024-03-22T02:43:50;4.60;99.90
12957;DHT22;6543;48.836;10.092;2024-03-22T02:46:17;7.90;99.90
12957;DHT22;6543;48.836;10.092;2024-03-22T02:48:43;7.80;99.90
12957;DHT22;6543;48.836;10.092;2024-03-22T02:51:10;5.80;99.90
12957;DHT22;6543;48.836;10.092;2024-03-22T02:53:36;7.10;99.90
12957;DHT22;6543;48.836;10.092;2024-03-22T02:56:04;4.50;99.90
12957;DHT22;6543;48.836;10.092;2024-03-22T02:58:31;3.80;99.90
12957;DHT22;6543;48.836;10.092;2024-03-22T03:01:00;5.80;99.90
12957;DHT22;6543;48.836;10.092;2024-03-22T03:03:28;4.50;99.90
12957;DHT22;6543;48.836;10.092;2024-03-22T03:05:55;6.60;99.90
12957;DHT22;6543;48.836;10.092;2024-03-22T03:08:21;7.40;99.90
12957;DHT22;6543;48.836;10.092;2024-03-22T03:10:48;4.20;99.90
12957;DHT22;6543;48.836;10.092;2024-03-22T03:13:14;5.70;99.90
12957;DHT22;6543;48.836;10.092;2024-03-22T03:15:43;5.00;99.90
12957;DHT22;6543;48.836;10.092;2024-03-22T03:18:08;4.70;99.90
12957;DHT22;6543;48.836;10.092;2024-03-22T03:20:35;4.40;99.90
12957;DHT22;6543;48.836;10.092;2024-03-22T03:23:01;4.50;99.90
12957;DHT22;6543;48.836;10.092;2024-03-22T03:25:28;4.50;99.90
12957;DHT22;6543;48.836;10.092;2024-03-22T03:27:54;4.60;99.90
12957;DHT22;6543;48.836;10.092;2024-03-22T03:30:20;4.90;99.90
12957;DHT22;6543;48.836;10.092;2024-03-22T03:32:48;4.40;99.90
12957;DHT22;6543;48.836;10.092;2024-03-22T03:35:14;4.40;99.90
12957;DHT22;6543;48.836;10.092;2024-03-22T03:37:40;4.30;99.90
12957;DHT22;6543;48.836;10.092;2024-03-22T03:40:08;4.50;99.90
12957;DHT22;6543;48.836;10.092;2024-03-22T03:42:34;4.10;99.90
12957;DHT22;6543;48.836;10.092;2024-03-22T03:45:01;4.00;99.90
12957;DHT22;6543;48.836;10.092;2024-03-22T03:47:27;4.00;99.90
12957;DHT22;6543;48.836;10.092;2024-03-22T03:49:55;4.00;99.90
12957;DHT22;6543;48.836;10.092;2024-03-22T03:52:20;4.10;99.90
12957;DHT22;6543;48.836;10.092;2024-03-22T03:54:47;4.10;99.90
12957;DHT22;6543;48.836;10.092;2024-03-22T03:57:13;4.10;99.90
12957;DHT22;6543;48.836;10.092;2024-03-22T03:59:40;4.10;99.90
12957;DHT22;6543;48.836;10.092;2024-03-22T04:02:05;4.10;99.90
12957;DHT22;6543;48.836;10.092;2024-03-22T04:04:32;4.10;99.90
12957;DHT22;6543;48.836;10.092;2024-03-22T04:06:59;4.10;99.90
12957;DHT22;6543;48.836;10.092;2024-03-22T04:09:26;4.00;99.90
12957;DHT22;6543;48.836;10.092;2024-03-22T04:11:52;4.10;99.90
12957;DHT22;6543;48.836;10.092;2024-03-22T04:14:18;4.00;99.90
12957;DHT22;6543;48.836;10.092;2024-03-22T04:16:44;4.50;99.90
12957;DHT22;6543;48.836;10.092;2024-03-22T04:19:11;3.80;99.90
12957;DHT22;6543;48.836;10.092;2024-03-22T04:21:37;3.80;99.90
12957;DHT22;6543;48.836;10.092;2024-03-22T04:24:05;3.70;99.90
12957;DHT22;6543;48.836;10.092;2024-03-22T04:26:31;3.60;99.90
12957;DHT22;6543;48.836;10.092;2024-03-22T04:28:58;3.60;99.90
12957;DHT22;6543;48.836;10.092;2024-03-22T04:31:24;3.60;99.90
12957;DHT22;6543;48.836;10.092;2024-03-22T04:33:51;3.50;99.90
12957;DHT22;6543;48.836;10.092;2024-03-22T04:36:17;3.50;99.90
12957;DHT22;6543;48.836;10.092;2024-03-22T04:38:43;3.50;99.90
12957;DHT22;6543;48.836;10.092;2024-03-22T04:41:11;3.50;99.90
12957;DHT22;6543;48.836;10.092;2024-03-22T04:43:38;3.50;99.90
12957;DHT22;6543;48.836;10.092;2024-03-22T04:46:05;3.50;99.90
12957;DHT22;6543;48.836;10.092;2024-03-22T04:48:31;3.70;99.90
12957;DHT22;6543;48.836;10.092;2024-03-22T04:50:58;3.50;99.90
12957;DHT22;6543;48.836;10.092;2024-03-22T04:53:23;3.50;99.90
12957;DHT22;6543;48.836;10.092;2024-03-22T04:55:50;3.70;99.90
12957;DHT22;6543;48.836;10.092;2024-03-22T04:58:18;3.60;99.90
12957;DHT22;6543;48.836;10.092;2024-03-22T05:00:46;3.60;99.90
12957;DHT22;6543;48.836;10.092;2024-03-22T05:03:12;3.60;99.90
12957;DHT22;6543;48.836;10.092;2024-03-22T05:05:41;3.70;99.90
12957;DHT22;6543;48.836;10.092;2024-03-22T05:08:07;3.60;99.90
12957;DHT22;6543;48.836;10.092;2024-03-22T05:10:35;3.60;99.90
12957;DHT22;6543;48.836;10.092;2024-03-22T05:13:01;3.70;99.90
12957;DHT22;6543;48.836;10.092;2024-03-22T05:15:29;3.80;99.90
12957;DHT22;6543;48.836;10.092;2024-03-22T05:17:57;3.80;99.90
12957;DHT22;6543;48.836;10.092;2024-03-22T05:20:24;3.80;99.90
12957;DHT22;6543;48.836;10.092;2024-03-22T05:22:50;3.80;99.90
12957;DHT22;6543;48.836;10.092;2024-03-22T05:25:17;3.90;99.90
12957;DHT22;6543;48.836;10.092;2024-03-22T05:27:45;3.80;99.90
12957;DHT22;6543;48.836;10.092;2024-03-22T05:30:12;4.50;99.90
12957;DHT22;6543;48.836;10.092;2024-03-22T05:32:40;3.70;99.90
12957;DHT22;6543;48.836;10.092;2024-03-22T05:35:07;3.80;99.90
12957;DHT22;6543;48.836;10.092;2024-03-22T05:37:34;3.80;99.90
12957;DHT22;6543;48.836;10.092;2024-03-22T05:40:00;3.80;99.90
12957;DHT22;6543;48.836;10.092;2024-03-22T05:42:26;3.90;99.90
12957;DHT22;6543;48.836;10.092;2024-03-22T05:44:54;3.90;99.90
12957;DHT22;6543;48.836;10.092;2024-03-22T05:47:20;4.40;99.90
12957;DHT22;6543;48.836;10.092;2024-03-22T05:49:48;3.90;99.90
12957;DHT22;6543;48.836;10.092;2024-03-22T05:52:14;4.00;99.90
12957;DHT22;6543;48.836;10.092;2024-03-22T05:54:41;4.10;99.90
12957;DHT22;6543;48.836;10.092;2024-03-22T05:57:07;4.10;99.90
12957;DHT22;6543;48.836;10.092;2024-03-22T05:59:34;4.20;99.90
12957;DHT22;6543;48.836;10.092;2024-03-22T06:02:00;4.30;99.90
12957;DHT22;6543;48.836;10.092;2024-03-22T06:04:27;4.30;99.90
12957;DHT22;6543;48.836;10.092;2024-03-22T06:06:54;4.50;99.90
12957;DHT22;6543;48.836;10.092;2024-03-22T06:09:21;4.50;99.90
12957;DHT22;6543;48.836;10.092;2024-03-22T06:11:50;4.60;99.90
12957;DHT22;6543;48.836;10.092;2024-03-22T06:14:17;5.40;99.90
12957;DHT22;6543;48.836;10.092;2024-03-22T06:16:43;4.80;99.90
12957;DHT22;6543;48.836;10.092;2024-03-22T06:19:10;4.90;99.90
12957;DHT22;6543;48.836;10.092;2024-03-22T06:21:36;5.10;99.90
12957;DHT22;6543;48.836;10.092;2024-03-22T06:24:05;5.20;99.90
12957;DHT22;6543;48.836;10.092;2024-03-22T06:26:30;5.40;99.90
12957;DHT22;6543;48.836;10.092;2024-03-22T06:28:57;5.60;99.90
12957;DHT22;6543;48.836;10.092;2024-03-22T06:31:23;5.80;99.90
12957;DHT22;6543;48.836;10.092;2024-03-22T06:33:50;6.00;99.90
12957;DHT22;6543;48.836;10.092;2024-03-22T06:36:16;6.20;99.90
12957;DHT22;6543;48.836;10.092;2024-03-22T06:38:43;6.40;99.90
12957;DHT22;6543;48.836;10.092;2024-03-22T06:41:11;6.50;99.90
12957;DHT22;6543;48.836;10.092;2024-03-22T06:43:37;6.60;99.90
12957;DHT22;6543;48.836;10.092;2024-03-22T06:46:03;6.80;99.90
12957;DHT22;6543;48.836;10.092;2024-03-22T06:48:30;6.90;99.90
12957;DHT22;6543;48.836;10.092;2024-03-22T06:50:56;7.00;99.90
12957;DHT22;6543;48.836;10.092;2024-03-22T06:53:22;7.10;99.90
12957;DHT22;6543;48.836;10.092;2024-03-22T06:55:48;7.80;99.90
12957;DHT22;6543;48.836;10.092;2024-03-22T06:58:16;7.50;99.90
12957;DHT22;6543;48.836;10.092;2024-03-22T07:00:42;7.70;99.90
12957;DHT22;6543;48.836;10.092;2024-03-22T07:03:09;7.80;99.90
12957;DHT22;6543;48.836;10.092;2024-03-22T07:05:35;8.00;99.90
12957;DHT22;6543;48.836;10.092;2024-03-22T07:08:02;8.70;99.90
12957;DHT22;6543;48.836;10.092;2024-03-22T07:10:27;8.30;99.90
12957;DHT22;6543;48.836;10.092;2024-03-22T07:12:54;8.40;99.90
12957;DHT22;6543;48.836;10.092;2024-03-22T07:15:23;8.50;99.90
12957;DHT22;6543;48.836;10.092;2024-03-22T07:17:51;8.50;99.90
12957;DHT22;6543;48.836;10.092;2024-03-22T07:20:17;8.50;99.90
12957;DHT22;6543;48.836;10.092;2024-03-22T07:22:44;8.40;99.90
12957;DHT22;6543;48.836;10.092;2024-03-22T07:25:11;8.80;99.90
12957;DHT22;6543;48.836;10.092;2024-03-22T07:27:37;8.60;99.90
12957;DHT22;6543;48.836;10.092;2024-03-22T07:30:04;8.60;99.90
12957;DHT22;6543;48.836;10.092;2024-03-22T07:32:33;8.70;99.90
12957;DHT22;6543;48.836;10.092;2024-03-22T07:34:58;8.80;99.90
12957;DHT22;6543;48.836;10.092;2024-03-22T07:37:25;9.20;99.90
12957;DHT22;6543;48.836;10.092;2024-03-22T07:39:51;9.00;99.90
12957;DHT22;6543;48.836;10.092;2024-03-22T07:42:18;9.10;99.90
12957;DHT22;6543;48.836;10.092;2024-03-22T07:44:44;9.30;99.90
12957;DHT22;6543;48.836;10.092;2024-03-22T07:47:11;9.60;99.90
12957;DHT22;6543;48.836;10.092;2024-03-22T07:49:38;10.20;99.90
12957;DHT22;6543;48.836;10.092;2024-03-22T07:52:05;9.90;99.90
12957;DHT22;6543;48.836;10.092;2024-03-22T07:54:31;10.00;99.90
12957;DHT22;6543;48.836;10.092;2024-03-22T07:56:58;10.10;99.90
12957;DHT22;6543;48.836;10.092;2024-03-22T07:59:24;10.20;99.90
12957;DHT22;6543;48.836;10.092;2024-03-22T08:01:51;10.30;99.90
12957;DHT22;6543;48.836;10.092;2024-03-22T08:04:16;10.40;99.90
12957;DHT22;6543;48.836;10.092;2024-03-22T08:06:45;10.50;99.90
12957;DHT22;6543;48.836;10.092;2024-03-22T08:09:12;11.00;99.90
12957;DHT22;6543;48.836;10.092;2024-03-22T08:11:39;11.10;99.90
12957;DHT22;6543;48.836;10.092;2024-03-22T08:14:05;10.80;99.90
12957;DHT22;6543;48.836;10.092;2024-03-22T08:16:32;10.90;99.90
12957;DHT22;6543;48.836;10.092;2024-03-22T08:18:58;11.00;99.90
12957;DHT22;6543;48.836;10.092;2024-03-22T08:21:25;10.90;99.90
12957;DHT22;6543;48.836;10.092;2024-03-22T08:23:52;11.20;99.90
12957;DHT22;6543;48.836;10.092;2024-03-22T08:26:19;11.30;99.90
12957;DHT22;6543;48.836;10.092;2024-03-22T08:28:45;11.80;99.90
12957;DHT22;6543;48.836;10.092;2024-03-22T08:31:12;12.30;99.90
12957;DHT22;6543;48.836;10.092;2024-03-22T08:33:38;11.90;99.90
12957;DHT22;6543;48.836;10.092;2024-03-22T08:36:05;11.90;99.90
12957;DHT22;6543;48.836;10.092;2024-03-22T08:38:32;11.70;99.90
12957;DHT22;6543;48.836;10.092;2024-03-22T08:41:00;12.20;99.90
12957;DHT22;6543;48.836;10.092;2024-03-22T08:43:26;11.60;99.90
12957;DHT22;6543;48.836;10.092;2024-03-22T08:45:54;12.40;99.90
12957;DHT22;6543;48.836;10.092;2024-03-22T08:48:21;13.60;99.90
12957;DHT22;6543;48.836;10.092;2024-03-22T08:50:48;12.30;99.90
12957;DHT22;6543;48.836;10.092;2024-03-22T08:53:14;12.10;99.90
12957;DHT22;6543;48.836;10.092;2024-03-22T08:55:45;12.30;99.90
12957;DHT22;6543;48.836;10.092;2024-03-22T08:58:13;12.50;99.90
12957;DHT22;6543;48.836;10.092;2024-03-22T09:00:41;13.00;99.90
12957;DHT22;6543;48.836;10.092;2024-03-22T09:03:06;13.30;99.90
12957;DHT22;6543;48.836;10.092;2024-03-22T09:05:33;13.50;99.90
12957;DHT22;6543;48.836;10.092;2024-03-22T09:07:59;13.50;99.90
12957;DHT22;6543;48.836;10.092;2024-03-22T09:10:29;13.80;99.90
12957;DHT22;6543;48.836;10.092;2024-03-22T09:12:55;13.70;99.90
12957;DHT22;6543;48.836;10.092;2024-03-22T09:15:24;14.40;99.90
12957;DHT22;6543;48.836;10.092;2024-03-22T09:17:51;15.60;99.90
12957;DHT22;6543;48.836;10.092;2024-03-22T09:20:18;13.80;99.90
12957;DHT22;6543;48.836;10.092;2024-03-22T09:22:44;14.00;99.90
12957;DHT22;6543;48.836;10.092;2024-03-22T09:25:12;13.80;99.90
12957;DHT22;6543;48.836;10.092;2024-03-22T09:27:37;13.80;99.90
12957;DHT22;6543;48.836;10.092;2024-03-22T09:30:05;14.10;99.90
12957;DHT22;6543;48.836;10.092;2024-03-22T09:32:33;13.80;99.90
12957;DHT22;6543;48.836;10.092;2024-03-22T09:35:00;14.40;99.90
12957;DHT22;6543;48.836;10.092;2024-03-22T09:37:25;14.50;99.90
12957;DHT22;6543;48.836;10.092;2024-03-22T09:39:52;14.40;99.90
12957;DHT22;6543;48.836;10.092;2024-03-22T09:42:22;14.10;99.90
12957;DHT22;6543;48.836;10.092;2024-03-22T09:44:51;14.30;99.90
12957;DHT22;6543;48.836;10.092;2024-03-22T09:47:17;14.70;99.90
12957;DHT22;6543;48.836;10.092;2024-03-22T09:49:48;14.50;99.90
12957;DHT22;6543;48.836;10.092;2024-03-22T09:52:15;14.80;99.90
12957;DHT22;6543;48.836;10.092;2024-03-22T09:54:45;14.70;99.90
12957;DHT22;6543;48.836;10.092;2024-03-22T09:57:13;14.60;99.90
12957;DHT22;6543;48.836;10.092;2024-03-22T09:59:41;14.50;99.90
12957;DHT22;6543;48.836;10.092;2024-03-22T10:02:10;15.50;99.90
12957;DHT22;6543;48.836;10.092;2024-03-22T10:04:38;14.70;99.90
12957;DHT22;6543;48.836;10.092;2024-03-22T10:07:05;14.70;99.90
12957;DHT22;6543;48.836;10.092;2024-03-22T10:09:33;14.60;99.90
12957;DHT22;6543;48.836;10.092;2024-03-22T10:11:59;14.70;99.90
12957;DHT22;6543;48.836;10.092;2024-03-22T10:14:26;15.20;99.90
12957;DHT22;6543;48.836;10.092;2024-03-22T10:16:52;15.00;99.90
12957;DHT22;6543;48.836;10.092;2024-03-22T10:19:20;16.50;99.90
12957;DHT22;6543;48.836;10.092;2024-03-22T10:21:46;15.20;99.90
12957;DHT22;6543;48.836;10.092;2024-03-22T10:24:15;15.30;99.90
12957;DHT22;6543;48.836;10.092;2024-03-22T10:26:41;15.60;99.90
12957;DHT22;6543;48.836;10.092;2024-03-22T10:29:08;16.10;99.90
12957;DHT22;6543;48.836;10.092;2024-03-22T10:31:35;16.00;99.90
12957;DHT22;6543;48.836;10.092;2024-03-22T10:34:03;15.80;99.90
12957;DHT22;6543;48.836;10.092;2024-03-22T10:36:29;15.30;99.90
12957;DHT22;6543;48.836;10.092;2024-03-22T10:38:58;15.70;99.90
12957;DHT22;6543;48.836;10.092;2024-03-22T10:41:27;16.20;99.90
12957;DHT22;6543;48.836;10.092;2024-03-22T10:43:54;16.30;99.90
12957;DHT22;6543;48.836;10.092;2024-03-22T10:46:20;16.00;99.90
12957;DHT22;6543;48.836;10.092;2024-03-22T10:48:48;16.40;99.90
12957;DHT22;6543;48.836;10.092;2024-03-22T10:51:16;16.40;99.90
12957;DHT22;6543;48.836;10.092;2024-03-22T10:53:43;16.20;99.90
12957;DHT22;6543;48.836;10.092;2024-03-22T10:56:11;16.30;99.90
12957;DHT22;6543;48.836;10.092;2024-03-22T10:58:41;16.60;99.90
12957;DHT22;6543;48.836;10.092;2024-03-22T11:01:21;16.30;99.90
12957;DHT22;6543;48.836;10.092;2024-03-22T11:03:48;16.20;99.90
12957;DHT22;6543;48.836;10.092;2024-03-22T11:06:18;16.10;99.90
12957;DHT22;6543;48.836;10.092;2024-03-22T11:08:49;16.10;99.90
12957;DHT22;6543;48.836;10.092;2024-03-22T11:11:18;15.90;99.90
12957;DHT22;6543;48.836;10.092;2024-03-22T11:13:49;16.20;99.90
12957;DHT22;6543;48.836;10.092;2024-03-22T11:16:15;16.20;99.90
12957;DHT22;6543;48.836;10.092;2024-03-22T11:18:42;16.20;99.90
12957;DHT22;6543;48.836;10.092;2024-03-22T11:21:08;16.20;99.90
12957;DHT22;6543;48.836;10.092;2024-03-22T11:23:35;16.30;99.90
12957;DHT22;6543;48.836;10.092;2024-03-22T11:26:02;16.30;99.90
12957;DHT22;6543;48.836;10.092;2024-03-22T11:28:32;16.10;99.90
12957;DHT22;6543;48.836;10.092;2024-03-22T11:31:00;16.00;99.90
12957;DHT22;6543;48.836;10.092;2024-03-22T11:33:26;16.60;99.90
12957;DHT22;6543;48.836;10.092;2024-03-22T11:35:52;16.90;99.90
12957;DHT22;6543;48.836;10.092;2024-03-22T11:38:19;17.50;99.90
12957;DHT22;6543;48.836;10.092;2024-03-22T11:40:46;17.10;99.90
12957;DHT22;6543;48.836;10.092;2024-03-22T11:43:14;17.20;99.90
12957;DHT22;6543;48.836;10.092;2024-03-22T11:45:41;17.10;99.90
12957;DHT22;6543;48.836;10.092;2024-03-22T11:48:10;17.00;99.90
12957;DHT22;6543;48.836;10.092;2024-03-22T11:50:36;17.10;99.90
12957;DHT22;6543;48.836;10.092;2024-03-22T11:53:05;17.10;99.90
12957;DHT22;6543;48.836;10.092;2024-03-22T11:55:31;17.00;99.90
12957;DHT22;6543;48.836;10.092;2024-03-22T11:57:58;16.60;99.90
12957;DHT22;6543;48.836;10.092;2024-03-22T12:00:28;16.60;99.90
12957;DHT22;6543;48.836;10.092;2024-03-22T12:02:55;16.80;99.90
12957;DHT22;6543;48.836;10.092;2024-03-22T12:05:22;16.80;99.90
12957;DHT22;6543;48.836;10.092;2024-03-22T12:07:51;17.00;99.90
12957;DHT22;6543;48.836;10.092;2024-03-22T12:10:17;17.10;99.90
12957;DHT22;6543;48.836;10.092;2024-03-22T12:12:44;17.30;99.90
12957;DHT22;6543;48.836;10.092;2024-03-22T12:15:10;18.60;99.90
12957;DHT22;6543;48.836;10.092;2024-03-22T12:17:37;16.90;99.90
12957;DHT22;6543;48.836;10.092;2024-03-22T12:20:06;16.80;99.90
12957;DHT22;6543;48.836;10.092;2024-03-22T12:22:35;17.30;99.90
12957;DHT22;6543;48.836;10.092;2024-03-22T12:25:01;17.40;99.90
12957;DHT22;6543;48.836;10.092;2024-03-22T12:27:29;17.10;99.90
12957;DHT22;6543;48.836;10.092;2024-03-22T12:29:55;17.40;99.90
12957;DHT22;6543;48.836;10.092;2024-03-22T12:32:25;17.20;99.90
12957;DHT22;6543;48.836;10.092;2024-03-22T12:34:51;17.40;99.90
12957;DHT22;6543;48.836;10.092;2024-03-22T12:37:18;17.70;99.90
12957;DHT22;6543;48.836;10.092;2024-03-22T12:39:45;17.30;99.90
12957;DHT22;6543;48.836;10.092;2024-03-22T12:42:13;17.30;99.90
12957;DHT22;6543;48.836;10.092;2024-03-22T12:44:38;17.50;99.90
12957;DHT22;6543;48.836;10.092;2024-03-22T12:47:06;17.20;99.90
12957;DHT22;6543;48.836;10.092;2024-03-22T12:49:32;17.60;99.90
12957;DHT22;6543;48.836;10.092;2024-03-22T12:51:59;17.50;99.90
12957;DHT22;6543;48.836;10.092;2024-03-22T12:54:25;17.50;99.90
12957;DHT22;6543;48.836;10.092;2024-03-22T12:56:53;17.00;99.90
12957;DHT22;6543;48.836;10.092;2024-03-22T12:59:19;17.50;99.60
12957;DHT22;6543;48.836;10.092;2024-03-22T13:01:46;18.00;99.90
12957;DHT22;6543;48.836;10.092;2024-03-22T13:04:12;17.70;99.90
12957;DHT22;6543;48.836;10.092;2024-03-22T13:06:39;17.90;98.90
12957;DHT22;6543;48.836;10.092;2024-03-22T13:09:05;17.70;97.30
12957;DHT22;6543;48.836;10.092;2024-03-22T13:11:35;17.40;97.30
12957;DHT22;6543;48.836;10.092;2024-03-22T13:14:02;17.80;97.60
12957;DHT22;6543;48.836;10.092;2024-03-22T13:16:29;17.60;97.70
12957;DHT22;6543;48.836;10.092;2024-03-22T13:18:55;17.90;97.70
12957;DHT22;6543;48.836;10.092;2024-03-22T13:21:21;18.30;97.80
12957;DHT22;6543;48.836;10.092;2024-03-22T13:23:47;18.20;98.10
12957;DHT22;6543;48.836;10.092;2024-03-22T13:26:14;18.10;97.20
12957;DHT22;6543;48.836;10.092;2024-03-22T13:28:40;18.10;97.40
12957;DHT22;6543;48.836;10.092;2024-03-22T13:31:10;18.40;97.80
12957;DHT22;6543;48.836;10.092;2024-03-22T13:33:36;18.70;98.20
12957;DHT22;6543;48.836;10.092;2024-03-22T13:36:03;18.40;98.40
12957;DHT22;6543;48.836;10.092;2024-03-22T13:38:30;18.80;98.80
12957;DHT22;6543;48.836;10.092;2024-03-22T13:40:58;18.70;98.60
12957;DHT22;6543;48.836;10.092;2024-03-22T13:43:25;18.80;98.80
12957;DHT22;6543;48.836;10.092;2024-03-22T13:45:53;18.70;98.40
12957;DHT22;6543;48.836;10.092;2024-03-22T13:48:22;18.10;98.40
12957;DHT22;6543;48.836;10.092;2024-03-22T13:50:52;18.80;98.90
12957;DHT22;6543;48.836;10.092;2024-03-22T13:53:18;19.00;98.60
12957;DHT22;6543;48.836;10.092;2024-03-22T13:55:47;19.30;97.80
12957;DHT22;6543;48.836;10.092;2024-03-22T13:58:13;18.90;97.00
12957;DHT22;6543;48.836;10.092;2024-03-22T14:00:40;19.20;96.90
12957;DHT22;6543;48.836;10.092;2024-03-22T14:03:06;19.30;96.40
12957;DHT22;6543;48.836;10.092;2024-03-22T14:05:35;18.60;96.60
12957;DHT22;6543;48.836;10.092;2024-03-22T14:08:01;18.10;96.50
12957;DHT22;6543;48.836;10.092;2024-03-22T14:10:29;18.60;97.10
12957;DHT22;6543;48.836;10.092;2024-03-22T14:12:56;18.90;96.90
12957;DHT22;6543;48.836;10.092;2024-03-22T14:15:23;19.20;97.00
12957;DHT22;6543;48.836;10.092;2024-03-22T14:17:50;19.00;96.80
12957;DHT22;6543;48.836;10.092;2024-03-22T14:20:17;19.30;95.40
12957;DHT22;6543;48.836;10.092;2024-03-22T14:22:45;19.00;95.50
12957;DHT22;6543;48.836;10.092;2024-03-22T14:25:13;19.40;94.80
12957;DHT22;6543;48.836;10.092;2024-03-22T14:27:39;19.50;94.80
12957;DHT22;6543;48.836;10.092;2024-03-22T14:30:08;19.40;94.20
12957;DHT22;6543;48.836;10.092;2024-03-22T14:32:35;19.10;94.10
12957;DHT22;6543;48.836;10.092;2024-03-22T14:35:03;19.20;94.70
12957;DHT22;6543;48.836;10.092;2024-03-22T14:37:30;19.20;94.90
12957;DHT22;6543;48.836;10.092;2024-03-22T14:39:57;18.90;95.20
12957;DHT22;6543;48.836;10.092;2024-03-22T14:42:25;19.10;95.70
12957;DHT22;6543;48.836;10.092;2024-03-22T14:44:51;19.00;95.70
12957;DHT22;6543;48.836;10.092;2024-03-22T14:47:21;18.90;95.80
12957;DHT22;6543;48.836;10.092;2024-03-22T14:49:49;18.90;95.20
12957;DHT22;6543;48.836;10.092;2024-03-22T14:52:17;18.80;95.80
12957;DHT22;6543;48.836;10.092;2024-03-22T14:54:42;18.70;95.60
12957;DHT22;6543;48.836;10.092;2024-03-22T14:57:11;18.40;95.70
12957;DHT22;6543;48.836;10.092;2024-03-22T14:59:37;18.80;95.80
12957;DHT22;6543;48.836;10.092;2024-03-22T15:02:04;18.80;95.80
12957;DHT22;6543;48.836;10.092;2024-03-22T15:04:30;18.80;95.70
12957;DHT22;6543;48.836;10.092;2024-03-22T15:06:56;18.30;95.40
12957;DHT22;6543;48.836;10.092;2024-03-22T15:09:22;18.70;95.40
12957;DHT22;6543;48.836;10.092;2024-03-22T15:11:50;19.10;95.50
12957;DHT22;6543;48.836;10.092;2024-03-22T15:14:17;18.90;94.80
12957;DHT22;6543;48.836;10.092;2024-03-22T15:16:44;18.40;94.80
12957;DHT22;6543;48.836;10.092;2024-03-22T15:19:10;18.20;95.20
12957;DHT22;6543;48.836;10.092;2024-03-22T15:21:37;18.20;95.60
12957;DHT22;6543;48.836;10.092;2024-03-22T15:24:03;18.40;95.50
12957;DHT22;6543;48.836;10.092;2024-03-22T15:26:31;18.40;95.20
12957;DHT22;6543;48.836;10.092;2024-03-22T15:28:57;18.50;95.00
12957;DHT22;6543;48.836;10.092;2024-03-22T15:31:25;18.20;95.20
12957;DHT22;6543;48.836;10.092;2024-03-22T15:33:51;18.20;95.40
12957;DHT22;6543;48.836;10.092;2024-03-22T15:36:18;18.00;95.70